Terminal Aerodrome Forecast
Issued by NWS

Home | Current Version | Previous Version | Text Only | Print | Product List | Glossary On
Versions: 1 2 3 4 5 6 7 8 9 10 11 12
000
FTUS43 KGLD 202320
TAFMCK
TAF
KMCK 202320Z 2100/2124 05007KT P6SM VCSH FEW070 SCT200
     FM210600 VRB05KT P6SM FEW045 SCT250
     FM211400 23011KT P6SM FEW040 SCT200
     FM212100 19012G18KT P6SM SCT070 BKN200=

USA.gov is the U.S. government's official web portal to all federal, state and local government web resources and services.